sensor_id;sensor_type;location;lat;lon;timestamp;pressure;altitude;pressure_sealevel;temperature;humidity
73101;BME280;61288;53.446;-2.266;2023-04-30T00:00:49;101799.63;;;11.54;95.80
73101;BME280;61288;53.446;-2.266;2023-04-30T00:03:15;101803.06;;;11.55;95.72
73101;BME280;61288;53.446;-2.266;2023-04-30T00:05:41;101807.44;;;11.53;95.86
73101;BME280;61288;53.446;-2.266;2023-04-30T00:08:06;101801.34;;;11.54;95.71
73101;BME280;61288;53.446;-2.266;2023-04-30T00:10:32;101805.72;;;11.53;95.63
73101;BME280;61288;53.446;-2.266;2023-04-30T00:12:57;101798.81;;;11.52;95.68
73101;BME280;61288;53.446;-2.266;2023-04-30T00:15:23;101796.16;;;11.54;95.72
73101;BME280;61288;53.446;-2.266;2023-04-30T00:17:49;101794.44;;;11.54;95.52
73101;BME280;61288;53.446;-2.266;2023-04-30T00:20:14;101787.47;;;11.55;95.72
73101;BME280;61288;53.446;-2.266;2023-04-30T00:22:40;101784.06;;;11.53;95.86
73101;BME280;61288;53.446;-2.266;2023-04-30T00:25:06;101789.25;;;11.54;95.23
73101;BME280;61288;53.446;-2.266;2023-04-30T00:27:32;101779.75;;;11.53;95.36
73101;BME280;61288;53.446;-2.266;2023-04-30T00:29:57;101782.34;;;11.53;95.77
73101;BME280;61288;53.446;-2.266;2023-04-30T00:32:23;101782.44;;;11.50;95.67
73101;BME280;61288;53.446;-2.266;2023-04-30T00:34:48;101781.56;;;11.50;95.76
73101;BME280;61288;53.446;-2.266;2023-04-30T00:37:14;101781.56;;;11.50;95.54
73101;BME280;61288;53.446;-2.266;2023-04-30T00:39:39;101778.97;;;11.50;95.43
73101;BME280;61288;53.446;-2.266;2023-04-30T00:42:04;101774.66;;;11.50;95.25
73101;BME280;61288;53.446;-2.266;2023-04-30T00:44:30;101777.25;;;11.50;95.23
73101;BME280;61288;53.446;-2.266;2023-04-30T00:46:55;101781.53;;;11.51;95.01
73101;BME280;61288;53.446;-2.266;2023-04-30T00:49:21;101780.72;;;11.49;95.43
73101;BME280;61288;53.446;-2.266;2023-04-30T00:51:47;101777.31;;;11.47;95.93
73101;BME280;61288;53.446;-2.266;2023-04-30T00:54:14;101773.88;;;11.47;95.82
73101;BME280;61288;53.446;-2.266;2023-04-30T00:56:40;101772.97;;;11.48;95.29
73101;BME280;61288;53.446;-2.266;2023-04-30T00:59:05;101769.47;;;11.49;95.12
73101;BME280;61288;53.446;-2.266;2023-04-30T01:01:32;101769.47;;;11.49;95.12
73101;BME280;61288;53.446;-2.266;2023-04-30T01:03:58;101771.19;;;11.50;95.25
73101;BME280;61288;53.446;-2.266;2023-04-30T01:06:25;101767.75;;;11.49;95.06
73101;BME280;61288;53.446;-2.266;2023-04-30T01:08:51;101763.41;;;11.50;95.14
73101;BME280;61288;53.446;-2.266;2023-04-30T01:14:11;101762.56;;;11.49;95.11
73101;BME280;61288;53.446;-2.266;2023-04-30T01:16:46;101768.66;;;11.47;95.92
73101;BME280;61288;53.446;-2.266;2023-04-30T01:21:44;101752.22;;;11.48;95.35
73101;BME280;61288;53.446;-2.266;2023-04-30T01:24:23;101753.09;;;11.47;95.71
73101;BME280;61288;53.446;-2.266;2023-04-30T01:27:06;101756.59;;;11.46;95.79
73101;BME280;61288;53.446;-2.266;2023-04-30T01:29:35;101758.34;;;11.45;95.55
73101;BME280;61288;53.446;-2.266;2023-04-30T01:32:03;101749.69;;;11.45;95.56
73101;BME280;61288;53.446;-2.266;2023-04-30T01:34:29;101755.88;;;11.40;96.63
73101;BME280;61288;53.446;-2.266;2023-04-30T01:50:32;101740.78;;;11.22;98.74
73101;BME280;61288;53.446;-2.266;2023-04-30T01:53:06;101738.28;;;11.19;99.10
73101;BME280;61288;53.446;-2.266;2023-04-30T01:55:42;101738.34;;;11.16;99.52
73101;BME280;61288;53.446;-2.266;2023-04-30T01:58:11;101735.00;;;11.12;99.90
73101;BME280;61288;53.446;-2.266;2023-04-30T02:00:37;101729.81;;;11.12;99.84
73101;BME280;61288;53.446;-2.266;2023-04-30T02:03:03;101729.81;;;11.12;99.67
73101;BME280;61288;53.446;-2.266;2023-04-30T02:05:29;101728.97;;;11.11;99.82
73101;BME280;61288;53.446;-2.266;2023-04-30T02:07:55;101722.94;;;11.11;99.88
73101;BME280;61288;53.446;-2.266;2023-04-30T02:10:22;101728.97;;;11.10;100.00
73101;BME280;61288;53.446;-2.266;2023-04-30T02:12:48;101721.25;;;11.08;99.44
73101;BME280;61288;53.446;-2.266;2023-04-30T02:15:14;101726.53;;;11.05;99.74
73101;BME280;61288;53.446;-2.266;2023-04-30T02:17:40;101726.53;;;11.05;100.00
73101;BME280;61288;53.446;-2.266;2023-04-30T02:20:10;101718.75;;;11.05;100.00
73101;BME280;61288;53.446;-2.266;2023-04-30T02:22:36;101720.44;;;11.06;100.00
73101;BME280;61288;53.446;-2.266;2023-04-30T02:25:02;101721.34;;;11.05;99.90
73101;BME280;61288;53.446;-2.266;2023-04-30T02:27:29;101717.88;;;11.05;100.00
73101;BME280;61288;53.446;-2.266;2023-04-30T02:29:55;101718.78;;;11.04;100.00
73101;BME280;61288;53.446;-2.266;2023-04-30T02:32:21;101712.84;;;11.00;100.00
73101;BME280;61288;53.446;-2.266;2023-04-30T02:34:47;101720.78;;;10.94;100.00
73101;BME280;61288;53.446;-2.266;2023-04-30T02:37:13;101722.63;;;10.89;100.00
73101;BME280;61288;53.446;-2.266;2023-04-30T02:39:38;101724.31;;;10.90;100.00
73101;BME280;61288;53.446;-2.266;2023-04-30T02:42:04;101711.31;;;10.91;100.00
73101;BME280;61288;53.446;-2.266;2023-04-30T02:44:31;101717.34;;;10.92;100.00
73101;BME280;61288;53.446;-2.266;2023-04-30T02:46:56;101713.88;;;10.93;100.00
73101;BME280;61288;53.446;-2.266;2023-04-30T02:49:22;101713.88;;;10.93;100.00
73101;BME280;61288;53.446;-2.266;2023-04-30T02:51:47;101717.31;;;10.93;100.00
73101;BME280;61288;53.446;-2.266;2023-04-30T02:54:13;101715.63;;;10.92;100.00
73101;BME280;61288;53.446;-2.266;2023-04-30T02:56:39;101720.81;;;10.92;100.00
73101;BME280;61288;53.446;-2.266;2023-04-30T02:59:05;101719.94;;;10.92;100.00
73101;BME280;61288;53.446;-2.266;2023-04-30T03:01:31;101714.75;;;10.92;100.00
73101;BME280;61288;53.446;-2.266;2023-04-30T03:03:56;101718.28;;;10.89;100.00
73101;BME280;61288;53.446;-2.266;2023-04-30T03:06:25;101717.50;;;10.86;100.00
73101;BME280;61288;53.446;-2.266;2023-04-30T03:08:50;101717.59;;;10.82;100.00
73101;BME280;61288;53.446;-2.266;2023-04-30T03:11:16;101721.97;;;10.80;100.00
73101;BME280;61288;53.446;-2.266;2023-04-30T03:13:42;101717.72;;;10.78;100.00
73101;BME280;61288;53.446;-2.266;2023-04-30T03:16:07;101713.44;;;10.75;100.00
73101;BME280;61288;53.446;-2.266;2023-04-30T03:18:33;101713.47;;;10.74;100.00
73101;BME280;61288;53.446;-2.266;2023-04-30T03:20:58;101718.66;;;10.74;100.00
73101;BME280;61288;53.446;-2.266;2023-04-30T03:23:27;101716.97;;;10.73;100.00
73101;BME280;61288;53.446;-2.266;2023-04-30T03:25:52;101714.44;;;10.69;100.00
73101;BME280;61288;53.446;-2.266;2023-04-30T03:28:18;101718.78;;;10.69;100.00
73101;BME280;61288;53.446;-2.266;2023-04-30T03:30:44;101712.00;;;10.65;100.00
73101;BME280;61288;53.446;-2.266;2023-04-30T03:33:09;101716.28;;;10.66;100.00
73101;BME280;61288;53.446;-2.266;2023-04-30T03:35:34;101711.84;;;10.69;100.00
73101;BME280;61288;53.446;-2.266;2023-04-30T03:38:00;101717.84;;;10.72;100.00
73101;BME280;61288;53.446;-2.266;2023-04-30T03:40:26;101713.47;;;10.74;100.00
73101;BME280;61288;53.446;-2.266;2023-04-30T03:42:52;101712.59;;;10.75;100.00
73101;BME280;61288;53.446;-2.266;2023-04-30T03:45:17;101713.34;;;10.80;100.00
73101;BME280;61288;53.446;-2.266;2023-04-30T03:47:43;101716.66;;;10.85;100.00
73101;BME280;61288;53.446;-2.266;2023-04-30T03:50:09;101715.63;;;10.92;100.00
73101;BME280;61288;53.446;-2.266;2023-04-30T03:52:35;101712.78;;;11.02;100.00
73101;BME280;61288;53.446;-2.266;2023-04-30T03:55:02;101711.72;;;11.09;100.00
73101;BME280;61288;53.446;-2.266;2023-04-30T03:57:27;101712.41;;;11.16;100.00
73101;BME280;61288;53.446;-2.266;2023-04-30T03:59:53;101716.63;;;11.20;100.00
73101;BME280;61288;53.446;-2.266;2023-04-30T04:02:19;101712.22;;;11.23;99.77
73101;BME280;61288;53.446;-2.266;2023-04-30T04:04:46;101720.81;;;11.25;100.00
73101;BME280;61288;53.446;-2.266;2023-04-30T04:07:11;101720.78;;;11.27;100.00
73101;BME280;61288;53.446;-2.266;2023-04-30T04:09:37;101724.25;;;11.26;100.00
73101;BME280;61288;53.446;-2.266;2023-04-30T04:12:03;101726.81;;;11.27;99.87
73101;BME280;61288;53.446;-2.266;2023-04-30T04:14:28;101718.09;;;11.30;99.65
73101;BME280;61288;53.446;-2.266;2023-04-30T04:16:54;101720.63;;;11.32;99.76
73101;BME280;61288;53.446;-2.266;2023-04-30T04:19:22;101719.72;;;11.34;99.44
73101;BME280;61288;53.446;-2.266;2023-04-30T04:21:48;101711.03;;;11.35;99.14
73101;BME280;61288;53.446;-2.266;2023-04-30T04:24:13;101711.84;;;11.37;99.02
73101;BME280;61288;53.446;-2.266;2023-04-30T04:26:39;101715.34;;;11.36;99.35
73101;BME280;61288;53.446;-2.266;2023-04-30T04:29:04;101710.09;;;11.38;99.00
73101;BME280;61288;53.446;-2.266;2023-04-30T04:31:31;101712.66;;;11.39;98.95
73101;BME280;61288;53.446;-2.266;2023-04-30T04:34:01;101716.06;;;11.41;98.50
73101;BME280;61288;53.446;-2.266;2023-04-30T04:36:28;101718.66;;;11.41;98.82
73101;BME280;61288;53.446;-2.266;2023-04-30T04:38:56;101713.44;;;11.41;98.52
73101;BME280;61288;53.446;-2.266;2023-04-30T04:41:27;101717.78;;;11.41;98.69
73101;BME280;61288;53.446;-2.266;2023-04-30T04:43:52;101710.88;;;11.40;98.79
73101;BME280;61288;53.446;-2.266;2023-04-30T04:46:18;101710.00;;;11.41;98.67
73101;BME280;61288;53.446;-2.266;2023-04-30T04:48:45;101712.56;;;11.43;98.48
73101;BME280;61288;53.446;-2.266;2023-04-30T04:51:11;101717.72;;;11.44;98.37
73101;BME280;61288;53.446;-2.266;2023-04-30T04:53:36;101713.38;;;11.45;98.50
73101;BME280;61288;53.446;-2.266;2023-04-30T04:56:02;101713.41;;;11.43;98.56
73101;BME280;61288;53.446;-2.266;2023-04-30T04:58:28;101718.59;;;11.43;98.54
73101;BME280;61288;53.446;-2.266;2023-04-30T05:00:53;101710.78;;;11.45;98.41
73101;BME280;61288;53.446;-2.266;2023-04-30T05:03:19;101715.97;;;11.45;98.67
73101;BME280;61288;53.446;-2.266;2023-04-30T05:05:45;101710.78;;;11.45;98.48
73101;BME280;61288;53.446;-2.266;2023-04-30T05:08:11;101714.25;;;11.44;98.78
73101;BME280;61288;53.446;-2.266;2023-04-30T05:10:37;101710.78;;;11.45;98.43
73101;BME280;61288;53.446;-2.266;2023-04-30T05:13:02;101707.28;;;11.46;98.38
73101;BME280;61288;53.446;-2.266;2023-04-30T05:15:28;101709.03;;;11.45;98.03
73101;BME280;61288;53.446;-2.266;2023-04-30T05:17:53;101715.03;;;11.47;97.82
73101;BME280;61288;53.446;-2.266;2023-04-30T05:20:19;101708.97;;;11.47;97.88
73101;BME280;61288;53.446;-2.266;2023-04-30T05:22:44;101716.78;;;11.47;98.05
73101;BME280;61288;53.446;-2.266;2023-04-30T05:25:10;101715.94;;;11.46;97.33
73101;BME280;61288;53.446;-2.266;2023-04-30T05:27:35;101718.47;;;11.48;97.24
73101;BME280;61288;53.446;-2.266;2023-04-30T05:30:01;101723.63;;;11.49;96.81
73101;BME280;61288;53.446;-2.266;2023-04-30T05:32:27;101721.03;;;11.49;96.92
73101;BME280;61288;53.446;-2.266;2023-04-30T05:34:53;101711.56;;;11.48;97.29
73101;BME280;61288;53.446;-2.266;2023-04-30T05:37:20;101722.84;;;11.46;96.33
73101;BME280;61288;53.446;-2.266;2023-04-30T05:39:47;101717.72;;;11.44;94.34
73101;BME280;61288;53.446;-2.266;2023-04-30T05:42:13;101718.56;;;11.45;92.17
73101;BME280;61288;53.446;-2.266;2023-04-30T05:44:39;101718.56;;;11.45;90.87
73101;BME280;61288;53.446;-2.266;2023-04-30T05:47:04;101719.47;;;11.42;89.96
73101;BME280;61288;53.446;-2.266;2023-04-30T05:49:30;101728.09;;;11.44;87.96
73101;BME280;61288;53.446;-2.266;2023-04-30T05:51:56;101726.34;;;11.45;89.00
73101;BME280;61288;53.446;-2.266;2023-04-30T05:54:22;101725.41;;;11.47;88.84
73101;BME280;61288;53.446;-2.266;2023-04-30T05:56:47;101715.03;;;11.47;86.98
73101;BME280;61288;53.446;-2.266;2023-04-30T05:59:12;101725.34;;;11.50;87.19
73101;BME280;61288;53.446;-2.266;2023-04-30T06:01:38;101727.13;;;11.48;86.10
73101;BME280;61288;53.446;-2.266;2023-04-30T06:04:03;101716.69;;;11.50;86.66
73101;BME280;61288;53.446;-2.266;2023-04-30T06:06:29;101722.75;;;11.50;86.08
73101;BME280;61288;53.446;-2.266;2023-04-30T06:08:56;101718.19;;;11.57;85.41
73101;BME280;61288;53.446;-2.266;2023-04-30T06:11:21;101713.69;;;11.64;84.80
73101;BME280;61288;53.446;-2.266;2023-04-30T06:13:49;101718.69;;;11.72;83.33
73101;BME280;61288;53.446;-2.266;2023-04-30T06:16:15;101708.06;;;11.79;83.42
73101;BME280;61288;53.446;-2.266;2023-04-30T06:18:41;101714.78;;;11.87;83.97
73101;BME280;61288;53.446;-2.266;2023-04-30T06:21:06;101712.84;;;11.93;82.79
73101;BME280;61288;53.446;-2.266;2023-04-30T06:23:32;101710.09;;;11.98;81.39
73101;BME280;61288;53.446;-2.266;2023-04-30T06:25:57;101726.50;;;12.02;81.30
73101;BME280;61288;53.446;-2.266;2023-04-30T06:28:23;101714.22;;;12.07;80.52
73101;BME280;61288;53.446;-2.266;2023-04-30T06:30:49;101713.31;;;12.08;81.52
73101;BME280;61288;53.446;-2.266;2023-04-30T06:33:15;101724.63;;;12.05;82.39
73101;BME280;61288;53.446;-2.266;2023-04-30T06:35:40;101713.81;;;12.19;81.70
73101;BME280;61288;53.446;-2.266;2023-04-30T06:38:05;101728.19;;;12.31;81.36
73101;BME280;61288;53.446;-2.266;2023-04-30T06:40:31;101721.19;;;12.33;81.58
73101;BME280;61288;53.446;-2.266;2023-04-30T06:42:56;101723.69;;;12.36;80.87
73101;BME280;61288;53.446;-2.266;2023-04-30T06:45:22;101720.84;;;12.44;80.07
73101;BME280;61288;53.446;-2.266;2023-04-30T06:47:47;101726.75;;;12.49;80.38
73101;BME280;61288;53.446;-2.266;2023-04-30T06:50:13;101726.00;;;12.46;79.67
73101;BME280;61288;53.446;-2.266;2023-04-30T06:52:39;101726.03;;;12.44;79.58
73101;BME280;61288;53.446;-2.266;2023-04-30T06:55:05;101726.94;;;12.43;79.46
73101;BME280;61288;53.446;-2.266;2023-04-30T06:57:31;101724.47;;;12.38;79.54
73101;BME280;61288;53.446;-2.266;2023-04-30T06:59:56;101727.44;;;12.27;78.33
73101;BME280;61288;53.446;-2.266;2023-04-30T07:02:22;101722.84;;;12.07;77.75
73101;BME280;61288;53.446;-2.266;2023-04-30T07:04:47;101722.13;;;12.02;79.87
73101;BME280;61288;53.446;-2.266;2023-04-30T07:07:13;101724.78;;;11.99;77.96
73101;BME280;61288;53.446;-2.266;2023-04-30T07:09:39;101726.78;;;11.91;78.38
73101;BME280;61288;53.446;-2.266;2023-04-30T07:12:04;101732.09;;;11.86;77.63
73101;BME280;61288;53.446;-2.266;2023-04-30T07:14:30;101717.59;;;11.79;76.79
73101;BME280;61288;53.446;-2.266;2023-04-30T07:16:55;101720.28;;;11.76;78.92
73101;BME280;61288;53.446;-2.266;2023-04-30T07:19:21;101722.00;;;11.75;77.98
73101;BME280;61288;53.446;-2.266;2023-04-30T07:21:48;101721.28;;;11.72;77.47
73101;BME280;61288;53.446;-2.266;2023-04-30T07:24:13;101716.91;;;11.72;75.78
73101;BME280;61288;53.446;-2.266;2023-04-30T07:26:39;101724.84;;;11.67;77.07
73101;BME280;61288;53.446;-2.266;2023-04-30T07:29:07;101717.00;;;11.69;75.71
73101;BME280;61288;53.446;-2.266;2023-04-30T07:31:32;101726.41;;;11.73;76.27
73101;BME280;61288;53.446;-2.266;2023-04-30T07:33:58;101726.25;;;11.79;75.60
73101;BME280;61288;53.446;-2.266;2023-04-30T07:36:26;101733.75;;;11.89;75.94
73101;BME280;61288;53.446;-2.266;2023-04-30T07:38:52;101726.81;;;11.89;74.37
73101;BME280;61288;53.446;-2.266;2023-04-30T07:41:18;101727.78;;;11.85;74.66
73101;BME280;61288;53.446;-2.266;2023-04-30T07:43:43;101734.16;;;11.75;73.60
73101;BME280;61288;53.446;-2.266;2023-04-30T07:46:09;101737.16;;;11.61;73.80
73101;BME280;61288;53.446;-2.266;2023-04-30T07:48:34;101733.66;;;11.62;74.24
73101;BME280;61288;53.446;-2.266;2023-04-30T07:51:00;101738.81;;;11.63;74.78
73101;BME280;61288;53.446;-2.266;2023-04-30T07:53:26;101740.81;;;11.53;74.70
73101;BME280;61288;53.446;-2.266;2023-04-30T07:55:52;101741.50;;;11.60;75.04
73101;BME280;61288;53.446;-2.266;2023-04-30T07:58:18;101742.25;;;11.64;75.18
73101;BME280;61288;53.446;-2.266;2023-04-30T08:00:43;101748.41;;;11.61;74.13
73101;BME280;61288;53.446;-2.266;2023-04-30T08:03:09;101742.25;;;11.64;73.85
73101;BME280;61288;53.446;-2.266;2023-04-30T08:05:34;101740.47;;;11.66;74.84
73101;BME280;61288;53.446;-2.266;2023-04-30T08:08:00;101738.56;;;11.71;74.14
73101;BME280;61288;53.446;-2.266;2023-04-30T08:10:26;101739.53;;;11.68;74.51
73101;BME280;61288;53.446;-2.266;2023-04-30T08:12:52;101742.16;;;11.67;73.83
73101;BME280;61288;53.446;-2.266;2023-04-30T08:15:17;101743.84;;;11.68;74.28
73101;BME280;61288;53.446;-2.266;2023-04-30T08:17:48;101748.25;;;11.66;74.16
73101;BME280;61288;53.446;-2.266;2023-04-30T08:20:17;101740.59;;;11.61;73.97
73101;BME280;61288;53.446;-2.266;2023-04-30T08:22:43;101737.16;;;11.61;75.46
73101;BME280;61288;53.446;-2.266;2023-04-30T08:25:12;101744.16;;;11.57;74.14
73101;BME280;61288;53.446;-2.266;2023-04-30T08:27:37;101745.06;;;11.56;75.50
73101;BME280;61288;53.446;-2.266;2023-04-30T08:30:04;101745.06;;;11.56;76.19
73101;BME280;61288;53.446;-2.266;2023-04-30T08:32:33;101746.72;;;11.59;75.07
73101;BME280;61288;53.446;-2.266;2023-04-30T08:35:06;101743.91;;;11.66;75.58
73101;BME280;61288;53.446;-2.266;2023-04-30T08:37:32;101744.47;;;11.76;75.05
73101;BME280;61288;53.446;-2.266;2023-04-30T08:39:58;101756.34;;;11.85;74.23
73101;BME280;61288;53.446;-2.266;2023-04-30T08:42:28;101743.47;;;11.82;73.38
73101;BME280;61288;53.446;-2.266;2023-04-30T08:44:57;101745.22;;;11.81;72.12
73101;BME280;61288;53.446;-2.266;2023-04-30T08:47:24;101740.88;;;11.82;72.77
73101;BME280;61288;53.446;-2.266;2023-04-30T08:49:50;101734.44;;;11.95;72.45
73101;BME280;61288;53.446;-2.266;2023-04-30T08:52:17;101730.41;;;12.15;72.83
73101;BME280;61288;53.446;-2.266;2023-04-30T08:54:43;101734.38;;;12.27;72.80
73101;BME280;61288;53.446;-2.266;2023-04-30T08:57:09;101733.34;;;12.33;72.15
73101;BME280;61288;53.446;-2.266;2023-04-30T08:59:35;101736.47;;;12.42;71.75
73101;BME280;61288;53.446;-2.266;2023-04-30T09:02:00;101736.31;;;12.49;72.17
73101;BME280;61288;53.446;-2.266;2023-04-30T09:04:26;101735.41;;;12.50;70.62
73101;BME280;61288;53.446;-2.266;2023-04-30T09:06:52;101733.81;;;12.46;71.49
73101;BME280;61288;53.446;-2.266;2023-04-30T09:09:27;101735.84;;;12.36;71.75
73101;BME280;61288;53.446;-2.266;2023-04-30T09:12:16;101732.44;;;12.34;71.20
73101;BME280;61288;53.446;-2.266;2023-04-30T09:14:59;101734.41;;;12.54;71.26
73101;BME280;61288;53.446;-2.266;2023-04-30T09:17:25;101721.78;;;12.68;69.77
73101;BME280;61288;53.446;-2.266;2023-04-30T09:19:51;101728.53;;;12.74;69.57
73101;BME280;61288;53.446;-2.266;2023-04-30T09:22:23;101728.66;;;12.71;69.91
73101;BME280;61288;53.446;-2.266;2023-04-30T09:24:50;101725.94;;;12.74;69.82
73101;BME280;61288;53.446;-2.266;2023-04-30T09:27:19;101728.03;;;12.90;70.67
73101;BME280;61288;53.446;-2.266;2023-04-30T09:29:45;101726.66;;;13.05;70.76
73101;BME280;61288;53.446;-2.266;2023-04-30T09:32:14;101726.50;;;13.09;70.95
73101;BME280;61288;53.446;-2.266;2023-04-30T09:34:40;101728.50;;;13.26;70.14
73101;BME280;61288;53.446;-2.266;2023-04-30T09:37:07;101719.81;;;13.27;68.81
73101;BME280;61288;53.446;-2.266;2023-04-30T09:39:32;101720.38;;;13.36;69.04
73101;BME280;61288;53.446;-2.266;2023-04-30T09:42:10;101716.41;;;13.25;69.66
73101;BME280;61288;53.446;-2.266;2023-04-30T09:44:39;101710.56;;;13.19;69.25
73101;BME280;61288;53.446;-2.266;2023-04-30T09:47:14;101720.03;;;13.21;69.59
73101;BME280;61288;53.446;-2.266;2023-04-30T09:49:42;101719.88;;;13.26;69.04
73101;BME280;61288;53.446;-2.266;2023-04-30T09:52:09;101717.81;;;13.09;70.69
73101;BME280;61288;53.446;-2.266;2023-04-30T09:54:35;101715.22;;;13.09;71.79
73101;BME280;61288;53.446;-2.266;2023-04-30T09:57:01;101715.97;;;13.12;69.18
73101;BME280;61288;53.446;-2.266;2023-04-30T09:59:31;101713.03;;;12.98;70.09
73101;BME280;61288;53.446;-2.266;2023-04-30T10:02:02;101718.81;;;13.06;70.56
73101;BME280;61288;53.446;-2.266;2023-04-30T10:04:43;101722.63;;;12.96;69.26
73101;BME280;61288;53.446;-2.266;2023-04-30T10:07:18;101717.25;;;12.75;69.38
73101;BME280;61288;53.446;-2.266;2023-04-30T10:10:11;101724.47;;;12.67;68.84
73101;BME280;61288;53.446;-2.266;2023-04-30T10:12:50;101722.09;;;12.59;70.12
73101;BME280;61288;53.446;-2.266;2023-04-30T10:15:24;101715.00;;;12.64;70.20
73101;BME280;61288;53.446;-2.266;2023-04-30T10:17:57;101711.28;;;12.71;69.79
73101;BME280;61288;53.446;-2.266;2023-04-30T10:20:25;101712.19;;;12.70;70.38
73101;BME280;61288;53.446;-2.266;2023-04-30T10:22:55;101716.44;;;12.73;70.91
73101;BME280;61288;53.446;-2.266;2023-04-30T10:25:21;101721.22;;;12.85;70.59
73101;BME280;61288;53.446;-2.266;2023-04-30T10:27:47;101713.38;;;12.87;70.51
73101;BME280;61288;53.446;-2.266;2023-04-30T10:30:13;101717.91;;;12.82;70.15
73101;BME280;61288;53.446;-2.266;2023-04-30T10:35:27;101709.41;;;13.02;69.76
73101;BME280;61288;53.446;-2.266;2023-04-30T10:38:15;101712.00;;;13.02;68.51
73101;BME280;61288;53.446;-2.266;2023-04-30T10:40:45;101715.19;;;13.10;68.63
73101;BME280;61288;53.446;-2.266;2023-04-30T10:43:11;101718.06;;;13.03;68.60
73101;BME280;61288;53.446;-2.266;2023-04-30T10:45:38;101705.59;;;12.87;68.47
73101;BME280;61288;53.446;-2.266;2023-04-30T10:48:06;101707.88;;;12.69;68.03
73101;BME280;61288;53.446;-2.266;2023-04-30T10:50:32;101702.00;;;12.64;68.33
73101;BME280;61288;53.446;-2.266;2023-04-30T10:53:04;101694.41;;;12.58;68.51
73101;BME280;61288;53.446;-2.266;2023-04-30T10:55:30;101703.03;;;12.59;69.36
73101;BME280;61288;53.446;-2.266;2023-04-30T10:57:59;101700.66;;;12.52;69.14
73101;BME280;61288;53.446;-2.266;2023-04-30T11:00:27;101699.84;;;12.50;69.84
73101;BME280;61288;53.446;-2.266;2023-04-30T11:02:57;101698.13;;;12.51;69.83
73101;BME280;61288;53.446;-2.266;2023-04-30T11:05:35;101689.31;;;12.55;70.57
73101;BME280;61288;53.446;-2.266;2023-04-30T11:08:10;101694.88;;;12.69;70.01
73101;BME280;61288;53.446;-2.266;2023-04-30T11:10:35;101682.84;;;12.67;68.97
73101;BME280;61288;53.446;-2.266;2023-04-30T11:13:05;101695.69;;;12.71;69.59
73101;BME280;61288;53.446;-2.266;2023-04-30T11:15:39;101680.47;;;12.61;69.52
73101;BME280;61288;53.446;-2.266;2023-04-30T11:18:12;101683.78;;;12.64;69.40
73101;BME280;61288;53.446;-2.266;2023-04-30T11:20:48;101690.78;;;12.62;70.77
73101;BME280;61288;53.446;-2.266;2023-04-30T11:23:16;101687.72;;;12.51;72.00
73101;BME280;61288;53.446;-2.266;2023-04-30T11:25:47;101690.41;;;12.21;74.30
73101;BME280;61288;53.446;-2.266;2023-04-30T11:28:14;101695.41;;;11.97;76.20
73101;BME280;61288;53.446;-2.266;2023-04-30T11:30:57;101691.50;;;11.83;79.26
73101;BME280;61288;53.446;-2.266;2023-04-30T11:33:25;101690.16;;;11.70;81.20
73101;BME280;61288;53.446;-2.266;2023-04-30T11:35:53;101694.28;;;11.47;83.68
73101;BME280;61288;53.446;-2.266;2023-04-30T11:38:28;101686.09;;;11.30;86.47
73101;BME280;61288;53.446;-2.266;2023-04-30T11:40:55;101688.91;;;11.22;88.44
73101;BME280;61288;53.446;-2.266;2023-04-30T11:43:26;101683.13;;;11.12;88.78
73101;BME280;61288;53.446;-2.266;2023-04-30T11:46:08;101678.69;;;11.16;89.88
73101;BME280;61288;53.446;-2.266;2023-04-30T11:48:36;101680.72;;;11.36;89.80
73101;BME280;61288;53.446;-2.266;2023-04-30T11:51:23;101678.06;;;11.39;90.90
73101;BME280;61288;53.446;-2.266;2023-04-30T11:53:52;101680.25;;;11.53;90.06
73101;BME280;61288;53.446;-2.266;2023-04-30T11:56:21;101681.94;;;11.55;90.05
73101;BME280;61288;53.446;-2.266;2023-04-30T11:58:51;101680.13;;;11.58;91.14
73101;BME280;61288;53.446;-2.266;2023-04-30T12:01:17;101674.84;;;11.61;88.96
73101;BME280;61288;53.446;-2.266;2023-04-30T12:03:46;101673.72;;;11.69;91.80
73101;BME280;61288;53.446;-2.266;2023-04-30T12:06:24;101671.31;;;11.63;90.68
73101;BME280;61288;53.446;-2.266;2023-04-30T12:08:54;101668.06;;;11.55;91.92
73101;BME280;61288;53.446;-2.266;2023-04-30T12:11:27;101658.28;;;11.65;93.08
73101;BME280;61288;53.446;-2.266;2023-04-30T12:13:54;101659.56;;;11.80;92.43
73101;BME280;61288;53.446;-2.266;2023-04-30T12:16:20;101672.53;;;11.81;90.78
73101;BME280;61288;53.446;-2.266;2023-04-30T12:18:46;101662.63;;;11.94;91.38
73101;BME280;61288;53.446;-2.266;2023-04-30T12:21:12;101666.25;;;11.89;89.87
73101;BME280;61288;53.446;-2.266;2023-04-30T12:23:37;101661.88;;;11.89;89.82
73101;BME280;61288;53.446;-2.266;2023-04-30T12:26:03;101666.91;;;11.95;88.63
73101;BME280;61288;53.446;-2.266;2023-04-30T12:28:28;101670.47;;;11.91;88.92
73101;BME280;61288;53.446;-2.266;2023-04-30T12:30:54;101661.63;;;11.98;90.95
73101;BME280;61288;53.446;-2.266;2023-04-30T12:33:20;101656.66;;;12.19;89.99
73101;BME280;61288;53.446;-2.266;2023-04-30T12:35:45;101653.81;;;12.27;88.20
73101;BME280;61288;53.446;-2.266;2023-04-30T12:38:15;101654.63;;;12.29;89.12
73101;BME280;61288;53.446;-2.266;2023-04-30T12:40:46;101648.59;;;12.28;87.25
73101;BME280;61288;53.446;-2.266;2023-04-30T12:43:14;101647.03;;;12.23;87.45
73101;BME280;61288;53.446;-2.266;2023-04-30T12:45:53;101658.66;;;12.11;88.57
73101;BME280;61288;53.446;-2.266;2023-04-30T12:48:24;101655.91;;;12.16;88.75
73101;BME280;61288;53.446;-2.266;2023-04-30T12:50:52;101648.38;;;12.08;89.29
73101;BME280;61288;53.446;-2.266;2023-04-30T12:53:18;101643.06;;;12.11;89.58
73101;BME280;61288;53.446;-2.266;2023-04-30T12:56:10;101649.03;;;12.15;88.92
73101;BME280;61288;53.446;-2.266;2023-04-30T12:58:36;101639.09;;;12.27;90.51
73101;BME280;61288;53.446;-2.266;2023-04-30T13:01:02;101641.94;;;12.47;88.06